Time;durP1;ratioP1;P1;durP2;ratioP2;P2;SDS_P1;SDS_P2;PMS_P1;PMS_P2;Temp;Humidity;BMP_temperature;BMP_pressure;BME280_temperature;BME280_humidity;BME280_pressure;Samples;Min_cycle;Max_cycle;Signal;HPM_P1;HPM_P2
2022/01/15 00:01:36;;;;;;;;;84.50;68.00;;;;;6.78;64.36;102612.00;4969343;28;45775;-71
2022/01/15 00:04:02;;;;;;;;;82.00;69.50;;;;;6.79;64.58;102600.50;4960845;28;45635;-71
2022/01/15 00:06:27;;;;;;;;;83.75;70.50;;;;;6.68;64.31;102586.97;4978744;28;45641;-71
2022/01/15 00:08:52;;;;;;;;;83.75;68.75;;;;;6.66;64.42;102594.13;4978544;28;45456;-71
2022/01/15 00:11:18;;;;;;;;;85.50;75.25;;;;;6.66;64.20;102591.47;4960843;28;47797;-72
2022/01/15 00:13:51;;;;;;;;;83.00;66.25;;;;;6.31;64.69;102535.88;4976879;28;45361;-72
2022/01/15 00:16:29;;;;;;;;;85.50;72.25;;;;;6.68;65.09;102584.31;4977964;28;45157;-71
2022/01/15 00:19:07;;;;;;;;;88.00;74.75;;;;;6.53;64.85;102545.41;4978002;28;45467;-71
2022/01/15 00:21:32;;;;;;;;;81.75;65.25;;;;;6.81;64.30;102603.97;4978085;28;46446;-71
2022/01/15 00:23:58;;;;;;;;;87.75;76.00;;;;;6.78;64.33;102582.06;4977821;28;45225;-71
2022/01/15 00:26:23;;;;;;;;;88.50;67.50;;;;;6.66;64.27;102562.41;4978017;28;45510;-70
2022/01/15 00:28:48;;;;;;;;;86.75;74.50;;;;;6.77;63.71;102564.50;4977685;28;45300;-70
2022/01/15 00:31:14;;;;;;;;;83.75;73.00;;;;;6.66;64.42;102546.53;4959962;28;46338;-70
2022/01/15 00:33:39;;;;;;;;;88.25;72.50;;;;;6.43;63.33;102510.66;4977733;28;45232;-70
2022/01/15 00:36:05;;;;;;;;;89.75;76.75;;;;;6.92;63.73;102591.06;4978126;28;46568;-70
2022/01/15 00:38:31;;;;;;;;;87.50;75.00;;;;;6.92;63.63;102585.75;4960371;28;45449;-71
2022/01/15 00:40:56;;;;;;;;;83.00;69.50;;;;;6.93;64.14;102582.19;4977648;28;46079;-71
2022/01/15 00:43:21;;;;;;;;;85.00;73.25;;;;;6.93;63.67;102576.03;4976401;28;45988;-70
2022/01/15 00:45:47;;;;;;;;;81.50;69.00;;;;;6.92;63.42;102572.53;4973030;28;45371;-69
2022/01/15 00:48:13;;;;;;;;;87.75;77.25;;;;;6.80;63.76;102554.63;4940897;28;45350;-71
2022/01/15 00:50:39;;;;;;;;;88.50;77.00;;;;;6.82;63.61;102551.94;4957688;28;46698;-71
2022/01/15 00:53:04;;;;;;;;;91.25;76.75;;;;;6.69;63.79;102536.66;4958087;28;45244;-72
2022/01/15 00:55:29;;;;;;;;;88.25;74.50;;;;;6.64;64.21;102533.41;4958042;28;45363;-70
2022/01/15 00:57:55;;;;;;;;;90.75;77.00;;;;;6.89;63.82;102574.50;4957165;28;45496;-71
2022/01/15 01:00:23;;;;;;;;;89.00;80.75;;;;;6.70;63.65;102537.53;4966850;28;46841;-70
2022/01/15 01:02:49;;;;;;;;;88.75;76.00;;;;;6.83;63.48;102561.56;4961282;28;46595;-71
2022/01/15 01:05:16;;;;;;;;;85.00;72.25;;;;;6.84;63.70;102556.22;4960138;28;45259;-69
2022/01/15 01:07:41;;;;;;;;;91.00;81.50;;;;;6.75;63.71;102539.94;4977845;28;45348;-71
2022/01/15 01:23:40;;;;;;;;;94.50;87.50;;;;;6.76;63.17;102537.22;4977335;28;45558;-71
2022/01/15 01:29:06;;;;;;;;;90.75;80.50;;;;;6.70;64.08;102527.81;4948877;28;45552;-72
2022/01/15 01:31:38;;;;;;;;;93.75;78.00;;;;;6.67;63.83;102527.09;4975830;28;46543;-70
2022/01/15 01:34:09;;;;;;;;;89.25;81.25;;;;;6.60;64.24;102520.38;4975861;28;45463;-72
2022/01/15 01:37:04;;;;;;;;;90.25;78.25;;;;;6.52;63.71;102506.72;4975820;28;45446;-70
2022/01/15 01:39:22;;;;;;;;;94.75;80.25;;;;;6.57;64.29;102523.19;4976717;28;45533;-71
2022/01/15 01:42:05;;;;;;;;;96.75;82.50;;;;;6.63;64.26;102528.19;4962792;28;48117;-71
2022/01/15 01:44:31;;;;;;;;;91.00;78.75;;;;;6.60;64.11;102520.38;4980441;28;45250;-71
2022/01/15 01:47:04;;;;;;;;;90.00;81.75;;;;;6.59;64.35;102513.38;4980263;28;45373;-71
2022/01/15 01:49:30;;;;;;;;;95.25;87.00;;;;;6.60;63.33;102515.97;4980385;28;45461;-69
2022/01/15 01:51:55;;;;;;;;;90.00;79.50;;;;;6.62;63.67;102523.84;4962527;28;46605;-71
2022/01/15 01:54:21;;;;;;;;;89.50;82.75;;;;;6.69;63.29;102530.53;4980161;28;45521;-71
2022/01/15 01:56:48;;;;;;;;;92.25;84.25;;;;;6.64;63.39;102528.13;4980313;28;45558;-71
2022/01/15 01:59:16;;;;;;;;;96.00;86.00;;;;;6.64;63.56;102517.53;4962702;28;45383;-70
2022/01/15 02:01:42;;;;;;;;;90.00;83.50;;;;;6.55;63.75;102504.75;4980022;28;45414;-70
2022/01/15 02:04:08;;;;;;;;;96.25;87.25;;;;;6.51;63.64;102490.00;4962189;28;45398;-70
2022/01/15 02:06:36;;;;;;;;;79.75;61.00;;;;;6.61;64.16;102499.19;4980088;28;45433;-70
2022/01/15 02:09:05;;;;;;;;;94.25;80.50;;;;;5.99;63.81;102401.84;4980124;28;45425;-71
2022/01/15 02:11:31;;;;;;;;;88.25;78.00;;;;;6.60;63.58;102504.53;4961907;28;46349;-71
2022/01/15 02:13:56;;;;;;;;;94.25;83.75;;;;;5.93;63.62;102381.03;4979639;28;45426;-71
2022/01/15 02:16:22;;;;;;;;;100.25;87.50;;;;;6.56;63.92;102487.13;4958839;28;45572;-70
2022/01/15 02:18:54;;;;;;;;;89.50;78.50;;;;;6.01;63.79;102394.75;4960770;28;45441;-70
2022/01/15 02:23:51;;;;;;;;;94.00;85.25;;;;;6.46;63.75;102483.22;4960458;28;45324;-70
2022/01/15 02:26:23;;;;;;;;;93.25;81.50;;;;;6.53;63.36;102503.97;4960263;28;45455;-71
2022/01/15 02:28:57;;;;;;;;;94.00;82.00;;;;;6.31;63.57;102464.53;4960626;28;45366;-71
2022/01/15 02:31:24;;;;;;;;;91.25;79.25;;;;;6.45;63.73;102492.09;4960002;28;45432;-70
2022/01/15 02:33:53;;;;;;;;;89.00;76.50;;;;;6.48;63.64;102490.16;4960259;28;45446;-71
2022/01/15 02:36:24;;;;;;;;;90.00;78.75;;;;;6.45;63.64;102489.44;4960616;28;45441;-70
2022/01/15 02:38:51;;;;;;;;;88.50;77.00;;;;;6.46;64.15;102492.00;4960512;28;45985;-72
2022/01/15 02:41:26;;;;;;;;;92.75;77.75;;;;;6.34;63.76;102482.03;4958575;28;47218;-70
2022/01/15 02:43:51;;;;;;;;;84.25;66.00;;;;;6.12;63.63;102455.81;4974933;28;45443;-71
2022/01/15 02:48:00;;;;;;;;;87.50;74.75;;;;;6.29;63.50;102482.25;4960186;28;45439;-71
2022/01/15 02:49:08;;;;;;;;;88.00;76.75;;;;;6.17;63.79;102468.78;4960279;28;45255;-71
2022/01/15 02:51:36;;;;;;;;;83.25;67.75;;;;;6.26;64.17;102485.06;4959756;28;46069;-70
2022/01/15 02:54:03;;;;;;;;;86.50;70.25;;;;;6.24;63.83;102480.78;4974569;28;46261;-70
2022/01/15 02:56:38;;;;;;;;;93.75;76.75;;;;;6.06;64.53;102441.13;4960029;28;45497;-71
2022/01/15 02:59:06;;;;;;;;;86.00;67.75;;;;;6.19;64.25;102467.78;4959833;28;45496;-71
2022/01/15 03:01:32;;;;;;;;;88.00;74.75;;;;;6.08;64.21;102447.19;4960453;28;45426;-70
2022/01/15 03:03:57;;;;;;;;;87.50;70.50;;;;;6.17;63.78;102453.78;4962047;28;45310;-72
2022/01/15 03:06:23;;;;;;;;;82.25;65.25;;;;;6.05;64.05;102433.28;4960610;28;45212;-71
2022/01/15 03:08:50;;;;;;;;;81.00;64.00;;;;;6.23;63.93;102452.66;4974723;28;45484;-69
2022/01/15 03:11:17;;;;;;;;;84.00;70.25;;;;;6.11;64.08;102427.69;4959305;28;45609;-71
2022/01/15 03:13:43;;;;;;;;;83.00;66.25;;;;;6.13;64.36;102438.16;4958062;28;45411;-71
2022/01/15 03:16:13;;;;;;;;;89.50;75.75;;;;;6.24;63.84;102444.66;4962052;28;45498;-71
2022/01/15 03:18:38;;;;;;;;;87.00;73.75;;;;;6.12;64.25;102412.69;4979149;28;45527;-71
2022/01/15 03:21:04;;;;;;;;;77.75;61.00;;;;;6.01;64.20;102397.38;4977539;28;47898;-71
2022/01/15 03:23:29;;;;;;;;;87.75;71.25;;;;;6.32;64.33;102441.63;4979079;28;45359;-70
2022/01/15 03:25:55;;;;;;;;;87.75;77.25;;;;;6.24;63.73;102425.31;4961553;28;45390;-70
2022/01/15 03:28:20;;;;;;;;;96.50;81.50;;;;;6.27;64.25;102448.94;4978596;28;45148;-69
2022/01/15 03:30:46;;;;;;;;;93.00;85.25;;;;;6.34;63.98;102456.47;4978584;28;45350;-71
2022/01/15 03:33:11;;;;;;;;;90.00;82.50;;;;;6.11;63.89;102406.56;4960954;28;45429;-70
2022/01/15 03:35:37;;;;;;;;;93.50;79.50;;;;;6.35;64.32;102433.56;4977427;28;46038;-70
2022/01/15 03:38:05;;;;;;;;;90.50;81.50;;;;;6.35;64.21;102421.19;4978993;28;45490;-72
2022/01/15 03:40:30;;;;;;;;;93.50;87.50;;;;;6.28;64.05;102411.03;4960817;28;46531;-69
2022/01/15 03:42:56;;;;;;;;;93.50;84.00;;;;;6.32;64.14;102420.50;4978738;28;45490;-70
2022/01/15 03:45:22;;;;;;;;;92.75;84.25;;;;;6.32;63.96;102418.72;4977285;28;45528;-69
2022/01/15 03:47:47;;;;;;;;;95.75;86.50;;;;;6.35;64.31;102415.91;4977211;28;45505;-70
2022/01/15 03:50:14;;;;;;;;;98.25;83.75;;;;;6.24;64.55;102391.84;4978204;28;46385;-70
2022/01/15 03:52:40;;;;;;;;;102.00;92.50;;;;;6.21;64.32;102402.56;4960827;28;46065;-70
2022/01/15 03:55:07;;;;;;;;;107.75;96.50;;;;;6.20;64.51;102395.53;4978492;28;45222;-70
2022/01/15 03:57:33;;;;;;;;;99.25;92.00;;;;;6.30;64.88;102410.00;4960961;28;45558;-70
2022/01/15 04:00:00;;;;;;;;;100.00;90.75;;;;;6.27;65.05;102412.81;4978201;28;46120;-70
2022/01/15 04:02:25;;;;;;;;;103.75;93.75;;;;;6.21;64.60;102412.25;4960080;28;45327;-71
2022/01/15 04:04:51;;;;;;;;;110.25;100.75;;;;;6.08;65.28;102385.59;4976816;28;45397;-69
2022/01/15 04:07:16;;;;;;;;;99.50;87.75;;;;;6.07;65.24;102394.44;4978604;28;45404;-71
2022/01/15 04:09:42;;;;;;;;;113.50;103.00;;;;;6.02;65.32;102388.53;4960189;28;47377;-70
2022/01/15 04:12:07;;;;;;;;;110.25;104.50;;;;;6.00;65.22;102396.50;4977744;28;45392;-71
2022/01/15 04:14:33;;;;;;;;;105.25;93.25;;;;;5.83;65.95;102359.50;4960562;28;45298;-71
2022/01/15 04:16:58;;;;;;;;;107.50;95.00;;;;;6.05;65.30;102393.66;4960491;28;45215;-71
2022/01/15 04:19:25;;;;;;;;;112.25;102.00;;;;;5.99;65.46;102376.31;4976534;28;47731;-70
2022/01/15 04:21:50;;;;;;;;;107.75;99.50;;;;;6.01;64.93;102392.09;4960131;28;45465;-70
2022/01/15 04:24:15;;;;;;;;;112.75;105.00;;;;;5.86;65.51;102369.06;4978051;28;45782;-70
2022/01/15 04:26:41;;;;;;;;;110.50;99.25;;;;;5.82;65.46;102368.34;4978127;28;45529;-70
2022/01/15 04:29:07;;;;;;;;;104.50;102.00;;;;;5.40;65.21;102302.63;4972777;28;47549;-70
2022/01/15 04:31:47;;;;;;;;;115.75;101.25;;;;;5.88;65.80;102372.47;4941111;28;45909;-71
2022/01/15 04:34:27;;;;;;;;;121.50;111.50;;;;;5.64;65.79;102356.03;4941090;28;45426;-71
2022/01/15 04:37:11;;;;;;;;;114.25;103.50;;;;;5.85;65.51;102388.47;4958652;28;45184;-71
2022/01/15 04:39:36;;;;;;;;;126.50;112.25;;;;;5.72;65.61;102360.00;4958014;28;45271;-70
2022/01/15 04:42:02;;;;;;;;;130.25;116.75;;;;;5.64;66.17;102353.41;4940749;28;45345;-71
2022/01/15 04:44:27;;;;;;;;;129.00;114.00;;;;;4.24;66.05;102120.97;4954091;28;45524;-70
2022/01/15 04:46:53;;;;;;;;;121.50;113.25;;;;;5.69;66.34;102357.50;4977845;28;45272;-71
2022/01/15 04:49:19;;;;;;;;;126.33;119.00;;;;;5.52;66.24;102328.44;4959757;28;47589;-70
2022/01/15 04:51:44;;;;;;;;;136.00;118.00;;;;;5.58;66.32;102343.97;4959759;28;45536;-70
2022/01/15 04:54:09;;;;;;;;;132.67;124.33;;;;;5.64;66.52;102353.41;4960050;28;45430;-70
2022/01/15 04:56:35;;;;;;;;;134.00;122.00;;;;;5.76;66.04;102374.75;4978001;28;45456;-69
2022/01/15 04:59:00;;;;;;;;;127.00;112.00;;;;;5.60;65.52;102344.75;4978144;28;46006;-69
2022/01/15 05:01:25;;;;;;;;;138.33;126.67;;;;;5.69;66.57;102375.97;4976802;28;45551;-70
2022/01/15 05:03:51;;;;;;;;;121.75;107.50;;;;;5.62;65.75;102355.25;4979894;28;45302;-71
2022/01/15 05:06:17;;;;;;;;;122.75;107.25;;;;;5.63;66.10;102349.91;4961565;28;45600;-71
2022/01/15 05:08:45;;;;;;;;;126.75;115.50;;;;;5.77;65.61;102365.91;4976115;28;46759;-70
2022/01/15 05:11:25;;;;;;;;;127.75;117.25;;;;;5.69;65.21;102351.38;4975655;28;45405;-70
2022/01/15 05:13:50;;;;;;;;;122.50;109.00;;;;;5.68;65.48;102355.81;4977415;28;45505;-70
2022/01/15 05:16:16;;;;;;;;;128.50;114.50;;;;;5.57;65.31;102339.63;4980875;28;45613;-71
2022/01/15 05:18:41;;;;;;;;;131.00;118.25;;;;;5.71;65.76;102341.59;4981232;28;45449;-72
2022/01/15 05:21:06;;;;;;;;;121.50;112.25;;;;;5.80;65.77;102355.19;4981309;28;45454;-70
2022/01/15 05:23:32;;;;;;;;;126.00;116.25;;;;;5.76;65.74;102348.38;4979917;28;45233;-71
2022/01/15 05:25:57;;;;;;;;;133.75;117.00;;;;;5.84;65.56;102349.81;4979267;28;45484;-70
2022/01/15 05:28:23;;;;;;;;;127.00;120.33;;;;;5.86;65.43;102359.34;4980313;28;45884;-71
2022/01/15 05:30:48;;;;;;;;;136.00;121.75;;;;;5.86;65.23;102358.50;4962998;28;45543;-71
2022/01/15 05:33:16;;;;;;;;;131.50;112.25;;;;;5.21;65.55;102246.44;4980682;28;45255;-71
2022/01/15 05:35:41;;;;;;;;;120.75;106.75;;;;;5.76;64.90;102332.53;4980899;28;45364;-71
2022/01/15 05:38:07;;;;;;;;;127.50;113.75;;;;;5.92;64.65;102352.94;4980232;28;45601;-70
2022/01/15 05:40:32;;;;;;;;;119.00;107.00;;;;;5.32;64.52;102246.75;4979892;28;45445;-70
2022/01/15 05:42:57;;;;;;;;;116.25;97.75;;;;;5.95;65.40;102351.00;4979474;28;45192;-71
2022/01/15 05:45:24;;;;;;;;;117.25;107.50;;;;;5.42;64.58;102267.38;4980766;28;45361;-71
2022/01/15 05:47:50;;;;;;;;;126.00;109.50;;;;;5.84;64.67;102349.81;4980156;28;45842;-70
2022/01/15 05:50:16;;;;;;;;;124.50;108.00;;;;;5.80;64.59;102344.63;4980269;28;45453;-71
2022/01/15 05:52:41;;;;;;;;;119.75;108.25;;;;;5.69;64.79;102314.44;4979009;28;46605;-70
2022/01/15 05:55:07;;;;;;;;;101.25;93.25;;;;;5.85;64.58;102338.31;4980243;28;45621;-71
2022/01/15 05:57:33;;;;;;;;;106.25;94.25;;;;;5.88;65.18;102359.28;4962310;28;48150;-71
2022/01/15 05:59:59;;;;;;;;;104.50;94.75;;;;;5.88;64.90;102360.13;4979969;28;45319;-70
2022/01/15 06:02:27;;;;;;;;;115.75;101.25;;;;;5.84;65.03;102357.72;4980375;28;45211;-70
2022/01/15 06:04:52;;;;;;;;;107.75;96.00;;;;;5.88;64.77;102361.91;4962881;28;45280;-70
2022/01/15 06:07:18;;;;;;;;;98.00;88.50;;;;;5.41;64.70;102283.25;4962196;28;47197;-71
2022/01/15 06:09:43;;;;;;;;;105.00;96.50;;;;;5.93;64.38;102373.97;4962028;28;45403;-71
2022/01/15 06:12:09;;;;;;;;;114.00;99.00;;;;;5.92;64.28;102374.06;4962645;28;45492;-70
2022/01/15 06:14:35;;;;;;;;;107.00;99.50;;;;;5.90;63.77;102373.28;4981026;28;45389;-71
2022/01/15 06:17:03;;;;;;;;;99.25;86.75;;;;;5.90;64.09;102366.22;4962125;28;47315;-69
2022/01/15 06:19:28;;;;;;;;;99.50;91.75;;;;;5.90;64.04;102368.00;4962166;28;45343;-71
2022/01/15 06:21:54;;;;;;;;;92.25;80.00;;;;;5.91;64.40;102372.34;4978302;28;45968;-70
2022/01/15 06:24:19;;;;;;;;;90.50;78.50;;;;;5.88;63.81;102368.03;4975123;28;45531;-70
2022/01/15 06:26:45;;;;;;;;;88.00;74.25;;;;;5.76;64.00;102348.38;4959391;28;46521;-69
2022/01/15 06:29:10;;;;;;;;;94.50;83.00;;;;;5.67;64.13;102350.59;4959892;28;45417;-69
2022/01/15 06:31:36;;;;;;;;;92.50;82.75;;;;;5.71;64.82;102362.72;4960559;28;45371;-71
2022/01/15 06:34:02;;;;;;;;;92.75;78.25;;;;;5.55;64.36;102338.84;4960693;28;45552;-71
2022/01/15 06:36:28;;;;;;;;;91.00;80.00;;;;;5.54;64.83;102352.94;4943618;28;47473;-70
2022/01/15 06:38:53;;;;;;;;;89.75;79.50;;;;;5.58;65.03;102353.66;4979594;28;45277;-71
2022/01/15 06:41:18;;;;;;;;;93.00;76.50;;;;;5.61;65.10;102341.22;4979936;28;45266;-71
2022/01/15 06:43:44;;;;;;;;;88.50;77.25;;;;;5.67;65.11;102354.09;4962408;28;45495;-71
2022/01/15 06:46:09;;;;;;;;;92.00;85.50;;;;;5.66;64.45;102354.16;4977795;28;47532;-71
2022/01/15 06:48:35;;;;;;;;;95.25;89.50;;;;;5.45;65.15;102322.59;4979234;28;45584;-72
2022/01/15 06:51:01;;;;;;;;;105.25;97.00;;;;;5.50;64.72;102328.50;4979589;28;45387;-69
2022/01/15 06:53:26;;;;;;;;;95.00;91.00;;;;;5.48;65.33;102329.50;4961969;28;45604;-70
2022/01/15 06:55:53;;;;;;;;;96.25;88.25;;;;;5.62;64.73;102328.88;4978673;28;46020;-70
2022/01/15 06:58:19;;;;;;;;;88.25;74.50;;;;;5.11;64.72;102238.94;4978085;28;45530;-72
2022/01/15 07:00:44;;;;;;;;;90.50;77.75;;;;;5.65;64.79;102321.66;4978111;28;45228;-70
2022/01/15 07:03:10;;;;;;;;;86.50;73.75;;;;;5.67;64.29;102327.72;4979858;28;45288;-72
2022/01/15 07:05:35;;;;;;;;;91.00;82.50;;;;;5.61;64.84;102320.09;4979309;28;48716;-71
2022/01/15 07:08:02;;;;;;;;;112.00;98.25;;;;;5.02;65.54;102220.94;4980132;28;45518;-70
2022/01/15 07:10:28;;;;;;;;;122.50;109.75;;;;;5.61;65.10;102327.16;4962003;28;45473;-71
2022/01/15 07:12:54;;;;;;;;;113.00;104.00;;;;;5.61;65.40;102322.75;4961911;28;45560;-70
2022/01/15 07:15:20;;;;;;;;;122.75;107.00;;;;;5.64;65.16;102319.09;4979094;28;46072;-71
2022/01/15 07:17:49;;;;;;;;;121.50;110.75;;;;;5.57;65.47;102318.50;4979039;28;45224;-72
2022/01/15 07:20:17;;;;;;;;;121.00;109.75;;;;;5.56;65.02;102319.44;4979235;28;46014;-70
2022/01/15 07:22:43;;;;;;;;;121.75;112.50;;;;;5.54;65.74;102315.16;4961657;28;45466;-70
2022/01/15 07:25:10;;;;;;;;;123.00;114.75;;;;;4.86;65.67;102217.31;4961744;28;46647;-70
2022/01/15 07:27:36;;;;;;;;;126.75;113.75;;;;;5.54;65.44;102321.28;4978892;28;45353;-71
2022/01/15 07:30:06;;;;;;;;;128.75;107.75;;;;;5.57;65.38;102320.28;4957613;28;45466;-70
2022/01/15 07:32:32;;;;;;;;;124.00;112.25;;;;;5.57;65.37;102326.41;4942014;28;45424;-73
2022/01/15 07:35:01;;;;;;;;;128.00;116.50;;;;;5.61;65.28;102325.38;4963845;28;47669;-71
2022/01/15 07:37:26;;;;;;;;;118.25;111.75;;;;;5.62;65.11;102319.16;4979463;28;45463;-71
2022/01/15 07:39:53;;;;;;;;;125.75;111.00;;;;;5.55;65.41;102309.81;4978880;28;45252;-71
2022/01/15 07:42:19;;;;;;;;;131.75;116.25;;;;;5.66;65.07;102311.94;4978792;28;45492;-71
2022/01/15 07:44:44;;;;;;;;;122.25;108.25;;;;;5.57;64.25;102300.03;4977206;28;47246;-70
2022/01/15 07:47:12;;;;;;;;;116.00;104.50;;;;;5.04;65.33;102221.72;4978548;28;45216;-70
2022/01/15 07:49:37;;;;;;;;;121.50;113.50;;;;;5.55;65.29;102308.97;4978535;28;45393;-71
2022/01/15 07:52:03;;;;;;;;;119.75;106.50;;;;;5.33;65.26;102285.41;4978387;28;45439;-70
2022/01/15 07:54:28;;;;;;;;;125.25;112.25;;;;;5.42;65.10;102306.06;4978264;28;47316;-69
2022/01/15 07:56:55;;;;;;;;;114.00;105.75;;;;;5.58;65.30;102320.22;4960408;28;46369;-72
2022/01/15 07:59:24;;;;;;;;;96.75;88.50;;;;;5.49;65.33;102320.66;4978386;28;45354;-72
2022/01/15 08:01:49;;;;;;;;;121.75;103.50;;;;;5.44;65.30;102296.31;4977785;28;45504;-70
2022/01/15 08:04:14;;;;;;;;;120.00;105.25;;;;;5.40;64.76;102289.44;4960830;28;47054;-71
2022/01/15 08:06:41;;;;;;;;;127.50;115.50;;;;;5.28;65.23;102261.03;4978438;28;45233;-71
2022/01/15 08:09:07;;;;;;;;;123.00;109.50;;;;;5.58;64.54;102309.66;4960634;28;45391;-72
2022/01/15 08:11:32;;;;;;;;;112.00;102.00;;;;;5.50;65.09;102296.00;4978045;28;45491;-70
2022/01/15 08:13:58;;;;;;;;;121.50;107.75;;;;;5.40;65.26;102270.97;4978327;28;45712;-72
2022/01/15 08:16:23;;;;;;;;;124.50;113.00;;;;;5.58;64.92;102293.84;4977911;28;45528;-70
2022/01/15 08:18:49;;;;;;;;;126.50;112.75;;;;;5.66;64.46;102299.63;4958767;28;45256;-70
2022/01/15 08:21:14;;;;;;;;;114.25;104.25;;;;;5.52;64.87;102290.66;4978408;28;45414;-71
2022/01/15 08:23:40;;;;;;;;;116.50;108.50;;;;;5.56;64.81;102297.47;4977876;28;46663;-70
2022/01/15 08:26:05;;;;;;;;;120.25;107.75;;;;;5.49;64.60;102281.09;4976569;28;45386;-70
2022/01/15 08:28:31;;;;;;;;;108.00;96.50;;;;;5.41;65.19;102264.81;4977985;28;45303;-72
2022/01/15 08:30:56;;;;;;;;;113.25;107.00;;;;;5.32;65.10;102239.72;4960606;28;45517;-71
2022/01/15 08:33:21;;;;;;;;;110.00;96.75;;;;;5.71;64.81;102292.31;4975850;28;45898;-71
2022/01/15 08:35:47;;;;;;;;;113.75;105.75;;;;;5.81;64.92;102295.38;4980422;28;45556;-72
2022/01/15 08:38:13;;;;;;;;;118.50;108.50;;;;;5.70;64.13;102266.00;4976856;28;45514;-72
2022/01/15 08:40:38;;;;;;;;;113.25;98.50;;;;;5.99;64.81;102301.53;4953276;28;45548;-71
2022/01/15 08:43:04;;;;;;;;;114.25;102.50;;;;;5.87;64.19;102273.09;4976924;28;45594;-70
2022/01/15 08:45:30;;;;;;;;;113.00;101.50;;;;;5.94;64.16;102266.59;4975996;28;45768;-70
2022/01/15 08:47:56;;;;;;;;;112.00;100.50;;;;;6.24;63.40;102302.03;4977229;28;45236;-71
2022/01/15 08:50:22;;;;;;;;;120.75;106.00;;;;;6.37;64.03;102297.81;4961049;28;45576;-71
2022/01/15 08:52:48;;;;;;;;;120.00;109.25;;;;;6.47;63.80;102294.72;4959747;28;48324;-70
2022/01/15 08:55:14;;;;;;;;;116.75;104.75;;;;;6.26;62.78;102242.06;4977225;28;45215;-72
2022/01/15 08:57:40;;;;;;;;;108.50;99.75;;;;;6.70;62.43;102299.66;4959712;28;45456;-71
2022/01/15 09:00:11;;;;;;;;;110.50;98.25;;;;;6.70;61.93;102278.50;4959842;28;45348;-71
2022/01/15 09:02:37;;;;;;;;;112.25;100.25;;;;;7.03;61.92;102310.22;4956874;28;48853;-72
2022/01/15 09:05:04;;;;;;;;;108.00;96.00;;;;;7.11;61.50;102318.59;4962180;28;45219;-71
2022/01/15 09:07:29;;;;;;;;;105.00;95.25;;;;;7.28;61.34;102315.03;4977176;28;45576;-72
2022/01/15 09:09:54;;;;;;;;;102.00;88.75;;;;;7.22;61.27;102283.63;4975367;28;45531;-71
2022/01/15 09:12:22;;;;;;;;;102.00;93.00;;;;;7.40;60.83;102305.53;4959177;28;47507;-70
2022/01/15 09:14:49;;;;;;;;;103.75;97.00;;;;;7.60;60.56;102315.84;4975170;28;45443;-70
2022/01/15 09:17:14;;;;;;;;;100.25;87.75;;;;;7.63;59.99;102298.03;4975492;28;45619;-71
2022/01/15 09:19:40;;;;;;;;;100.75;97.25;;;;;7.78;59.67;102314.81;4977171;28;45221;-73
2022/01/15 09:22:09;;;;;;;;;104.75;95.50;;;;;7.89;59.63;102324.81;4955297;28;46502;-71
2022/01/15 09:24:34;;;;;;;;;99.75;95.25;;;;;7.64;58.96;102256.53;4977050;28;45469;-73
2022/01/15 09:27:01;;;;;;;;;104.75;92.75;;;;;8.01;58.74;102310.88;4977597;28;45374;-71
2022/01/15 09:32:12;;;;;;;;;105.50;95.25;;;;;8.07;58.42;102291.97;4976512;28;45677;-72
2022/01/15 09:34:37;;;;;;;;;101.25;92.25;;;;;8.21;58.46;102307.91;4976394;28;45600;-70
2022/01/15 09:37:04;;;;;;;;;102.00;93.50;;;;;8.30;58.63;102313.59;4977046;28;45422;-73
2022/01/15 09:39:30;;;;;;;;;100.25;92.75;;;;;8.35;58.02;102311.56;4963181;28;45627;-72
2022/01/15 09:41:56;;;;;;;;;102.50;91.50;;;;;8.33;57.83;102305.47;4976113;28;46614;-71
2022/01/15 09:44:23;;;;;;;;;97.50;89.75;;;;;8.47;57.64;102310.84;4976456;28;45225;-71
2022/01/15 09:46:50;;;;;;;;;98.50;92.25;;;;;8.47;58.27;102316.13;4976665;28;45370;-73
2022/01/15 09:49:18;;;;;;;;;98.25;92.75;;;;;8.43;57.87;102296.91;4975017;28;45592;-71
2022/01/15 09:51:45;;;;;;;;;104.75;92.00;;;;;8.61;57.87;102317.94;4958103;28;47564;-74
2022/01/15 09:54:13;;;;;;;;;101.00;92.75;;;;;8.63;57.53;102314.28;4974015;28;45500;-73
2022/01/15 09:56:38;;;;;;;;;107.50;98.25;;;;;8.61;57.02;102324.13;4975885;28;45493;-74
2022/01/15 09:59:04;;;;;;;;;112.00;97.25;;;;;8.60;57.53;102311.78;4945218;28;45947;-72
2022/01/15 10:01:31;;;;;;;;;108.75;96.50;;;;;8.51;57.44;102313.19;4974555;28;46096;-71
2022/01/15 10:03:58;;;;;;;;;114.00;100.50;;;;;8.38;57.92;102311.38;4984538;28;46133;-72
2022/01/15 10:06:23;;;;;;;;;108.75;95.75;;;;;8.24;57.93;102298.94;4965078;28;45597;-70
2022/01/15 10:09:06;;;;;;;;;105.25;92.50;;;;;8.26;58.07;102302.34;4977741;28;45440;-74
2022/01/15 10:11:51;;;;;;;;;105.75;98.75;;;;;8.07;58.39;102277.88;4978943;28;45697;-71
2022/01/15 10:14:31;;;;;;;;;111.25;102.00;;;;;8.08;58.40;102283.06;4977868;28;45470;-74
2022/01/15 10:16:59;;;;;;;;;115.50;104.75;;;;;7.99;58.68;102273.00;4977443;28;45323;-71
2022/01/15 10:19:37;;;;;;;;;93.50;87.25;;;;;8.16;58.51;102307.31;4979271;28;45465;-72
2022/01/15 10:22:13;;;;;;;;;124.50;110.25;;;;;8.17;58.60;102308.16;4979050;28;46997;-71
2022/01/15 10:24:40;;;;;;;;;103.00;92.75;;;;;8.09;58.18;102291.88;4978716;28;45493;-72
2022/01/15 10:27:23;;;;;;;;;110.75;104.00;;;;;8.17;58.24;102295.75;4979564;28;45263;-71
2022/01/15 10:30:01;;;;;;;;;109.00;100.25;;;;;8.22;58.43;102301.66;4961974;28;45295;-71
2022/01/15 10:32:32;;;;;;;;;114.25;104.50;;;;;8.17;58.40;102293.13;4962003;28;47530;-72
2022/01/15 10:34:58;;;;;;;;;115.25;101.25;;;;;8.16;58.75;102288.75;4962424;28;46014;-72
2022/01/15 10:37:26;;;;;;;;;109.00;101.50;;;;;8.11;58.31;102277.59;4979656;28;45321;-71
2022/01/15 10:39:56;;;;;;;;;111.00;105.75;;;;;8.09;58.50;102282.13;4980024;28;45483;-72
2022/01/15 10:42:23;;;;;;;;;110.00;97.00;;;;;7.92;58.71;102235.44;4961487;28;48200;-73
2022/01/15 10:44:57;;;;;;;;;112.75;105.75;;;;;8.06;58.28;102269.06;4979480;28;45659;-74
2022/01/15 10:47:26;;;;;;;;;122.50;112.50;;;;;7.91;58.43;102254.06;4962016;28;45501;-70
2022/01/15 10:49:51;;;;;;;;;106.75;104.00;;;;;7.76;58.88;102239.06;4961788;28;45536;-72
2022/01/15 10:52:23;;;;;;;;;121.50;107.75;;;;;7.99;59.26;102273.00;4961425;28;46499;-72
2022/01/15 10:54:50;;;;;;;;;120.50;108.25;;;;;7.87;59.43;102255.22;4979216;28;45465;-72
2022/01/15 10:57:18;;;;;;;;;114.00;104.50;;;;;7.99;59.14;102270.34;4979643;28;45180;-72
2022/01/15 11:00:18;;;;;;;;;128.00;111.75;;;;;7.96;59.40;102270.53;4978492;28;45432;-72
2022/01/15 11:02:46;;;;;;;;;118.25;109.50;;;;;7.81;59.63;102255.56;4979557;28;45867;-72
2022/01/15 11:05:23;;;;;;;;;115.75;110.00;;;;;7.75;59.61;102237.38;4979768;28;45397;-73
2022/01/15 11:07:49;;;;;;;;;120.00;108.50;;;;;7.88;59.62;102257.75;4961983;28;45296;-74
2022/01/15 11:10:14;;;;;;;;;119.00;109.75;;;;;7.79;59.94;102244.19;4977946;28;45560;-72
2022/01/15 11:12:40;;;;;;;;;129.75;118.25;;;;;7.91;59.77;102264.66;4961017;28;46784;-72
2022/01/15 11:15:07;;;;;;;;;121.00;110.50;;;;;7.88;59.40;102265.69;4979278;28;45310;-72
2022/01/15 11:17:33;;;;;;;;;108.50;99.75;;;;;7.91;59.38;102256.72;4979134;28;45537;-73
2022/01/15 11:20:03;;;;;;;;;118.00;108.00;;;;;7.32;59.47;102155.19;4961337;28;45672;-73
2022/01/15 11:22:31;;;;;;;;;112.00;104.25;;;;;7.79;59.16;102223.84;4961394;28;47584;-70
2022/01/15 11:24:56;;;;;;;;;122.25;107.75;;;;;7.94;59.48;102243.28;4978091;28;46203;-71
2022/01/15 11:27:26;;;;;;;;;121.50;109.25;;;;;7.93;59.77;102223.91;4979152;28;45564;-72
2022/01/15 11:29:54;;;;;;;;;108.00;101.75;;;;;8.11;59.36;102251.09;4977843;28;45541;-71
2022/01/15 11:32:21;;;;;;;;;109.25;98.00;;;;;8.02;59.18;102224.31;4961160;28;47401;-71